sensor_id;sensor_type;location;lat;lon;timestamp;temperature;humidity
73586;DHT22;61865;50.232;18.614;2023-02-02T00:01:07;1.30;99.90
73586;DHT22;61865;50.232;18.614;2023-02-02T00:03:29;1.20;99.90
73586;DHT22;61865;50.232;18.614;2023-02-02T00:05:52;1.20;99.90
73586;DHT22;61865;50.232;18.614;2023-02-02T00:08:14;1.20;99.90
73586;DHT22;61865;50.232;18.614;2023-02-02T00:10:38;1.20;99.90
73586;DHT22;61865;50.232;18.614;2023-02-02T00:13:00;1.20;99.90
73586;DHT22;61865;50.232;18.614;2023-02-02T00:15:22;1.20;99.90
73586;DHT22;61865;50.232;18.614;2023-02-02T00:17:44;1.20;99.90
73586;DHT22;61865;50.232;18.614;2023-02-02T00:20:06;1.20;99.90
73586;DHT22;61865;50.232;18.614;2023-02-02T00:22:28;1.20;99.90
73586;DHT22;61865;50.232;18.614;2023-02-02T00:24:50;1.10;99.90
73586;DHT22;61865;50.232;18.614;2023-02-02T00:27:14;1.10;99.90
73586;DHT22;61865;50.232;18.614;2023-02-02T00:29:35;1.20;99.90
73586;DHT22;61865;50.232;18.614;2023-02-02T00:31:59;1.20;99.90
73586;DHT22;61865;50.232;18.614;2023-02-02T00:34:21;1.20;99.90
73586;DHT22;61865;50.232;18.614;2023-02-02T00:36:44;1.20;99.90
73586;DHT22;61865;50.232;18.614;2023-02-02T00:39:06;1.20;99.90
73586;DHT22;61865;50.232;18.614;2023-02-02T00:41:28;1.10;99.90
73586;DHT22;61865;50.232;18.614;2023-02-02T00:43:51;1.10;99.90
73586;DHT22;61865;50.232;18.614;2023-02-02T00:46:27;1.10;99.90
73586;DHT22;61865;50.232;18.614;2023-02-02T00:48:50;1.10;99.90
73586;DHT22;61865;50.232;18.614;2023-02-02T00:51:12;1.10;99.90
73586;DHT22;61865;50.232;18.614;2023-02-02T00:53:34;1.10;99.90
73586;DHT22;61865;50.232;18.614;2023-02-02T00:55:56;1.20;99.90
73586;DHT22;61865;50.232;18.614;2023-02-02T00:58:18;1.20;99.90
73586;DHT22;61865;50.232;18.614;2023-02-02T01:00:41;1.20;99.90
73586;DHT22;61865;50.232;18.614;2023-02-02T01:03:03;1.20;99.90
73586;DHT22;61865;50.232;18.614;2023-02-02T01:05:26;1.20;99.90
73586;DHT22;61865;50.232;18.614;2023-02-02T01:07:48;1.30;99.90
73586;DHT22;61865;50.232;18.614;2023-02-02T01:10:13;1.30;99.90
73586;DHT22;61865;50.232;18.614;2023-02-02T01:12:35;1.30;99.90
73586;DHT22;61865;50.232;18.614;2023-02-02T01:14:57;1.30;99.90
73586;DHT22;61865;50.232;18.614;2023-02-02T01:17:20;1.20;99.90
73586;DHT22;61865;50.232;18.614;2023-02-02T01:19:42;1.30;99.90
73586;DHT22;61865;50.232;18.614;2023-02-02T01:22:04;1.30;99.90
73586;DHT22;61865;50.232;18.614;2023-02-02T01:24:26;1.30;99.90
73586;DHT22;61865;50.232;18.614;2023-02-02T01:26:48;1.30;99.90
73586;DHT22;61865;50.232;18.614;2023-02-02T01:29:10;1.30;99.90
73586;DHT22;61865;50.232;18.614;2023-02-02T01:31:32;1.40;99.90
73586;DHT22;61865;50.232;18.614;2023-02-02T01:33:56;1.40;99.90
73586;DHT22;61865;50.232;18.614;2023-02-02T01:36:19;1.50;99.90
73586;DHT22;61865;50.232;18.614;2023-02-02T01:38:41;1.40;99.90
73586;DHT22;61865;50.232;18.614;2023-02-02T01:41:04;1.50;99.90
73586;DHT22;61865;50.232;18.614;2023-02-02T01:43:28;1.60;99.90
73586;DHT22;61865;50.232;18.614;2023-02-02T01:45:50;1.60;99.90
73586;DHT22;61865;50.232;18.614;2023-02-02T01:48:12;1.60;99.90
73586;DHT22;61865;50.232;18.614;2023-02-02T01:50:36;1.60;99.90
73586;DHT22;61865;50.232;18.614;2023-02-02T01:53:00;1.70;99.90
73586;DHT22;61865;50.232;18.614;2023-02-02T01:55:25;1.70;99.90
73586;DHT22;61865;50.232;18.614;2023-02-02T01:57:52;1.70;99.90
73586;DHT22;61865;50.232;18.614;2023-02-02T02:00:16;1.70;99.90
73586;DHT22;61865;50.232;18.614;2023-02-02T02:02:46;1.70;99.90
73586;DHT22;61865;50.232;18.614;2023-02-02T02:05:09;1.70;99.90
73586;DHT22;61865;50.232;18.614;2023-02-02T02:07:33;1.70;99.90
73586;DHT22;61865;50.232;18.614;2023-02-02T02:09:55;1.70;99.90
73586;DHT22;61865;50.232;18.614;2023-02-02T02:12:17;1.80;99.90
73586;DHT22;61865;50.232;18.614;2023-02-02T02:14:39;1.80;99.90
73586;DHT22;61865;50.232;18.614;2023-02-02T02:17:33;1.80;99.90
73586;DHT22;61865;50.232;18.614;2023-02-02T02:20:25;1.80;99.90
73586;DHT22;61865;50.232;18.614;2023-02-02T02:26:37;1.90;99.90
73586;DHT22;61865;50.232;18.614;2023-02-02T02:29:30;2.00;99.90
73586;DHT22;61865;50.232;18.614;2023-02-02T02:34:51;2.00;99.90
73586;DHT22;61865;50.232;18.614;2023-02-02T02:37:23;2.00;99.90
73586;DHT22;61865;50.232;18.614;2023-02-02T02:39:53;2.10;99.90
73586;DHT22;61865;50.232;18.614;2023-02-02T02:42:19;2.10;99.90
73586;DHT22;61865;50.232;18.614;2023-02-02T02:44:43;2.10;99.90
73586;DHT22;61865;50.232;18.614;2023-02-02T02:47:07;2.10;99.90
73586;DHT22;61865;50.232;18.614;2023-02-02T02:49:29;2.20;99.90
73586;DHT22;61865;50.232;18.614;2023-02-02T02:51:52;2.10;99.90
73586;DHT22;61865;50.232;18.614;2023-02-02T02:54:16;2.20;99.90
73586;DHT22;61865;50.232;18.614;2023-02-02T02:56:46;2.20;99.90
73586;DHT22;61865;50.232;18.614;2023-02-02T02:59:19;2.20;99.90
73586;DHT22;61865;50.232;18.614;2023-02-02T03:01:51;2.10;99.90
73586;DHT22;61865;50.232;18.614;2023-02-02T03:04:21;2.10;99.90
73586;DHT22;61865;50.232;18.614;2023-02-02T03:06:51;2.10;99.90
73586;DHT22;61865;50.232;18.614;2023-02-02T03:09:17;2.20;99.90
73586;DHT22;61865;50.232;18.614;2023-02-02T03:11:40;2.10;99.90
73586;DHT22;61865;50.232;18.614;2023-02-02T03:14:03;2.20;99.90
73586;DHT22;61865;50.232;18.614;2023-02-02T03:16:29;2.20;99.90
73586;DHT22;61865;50.232;18.614;2023-02-02T03:18:50;2.20;99.90
73586;DHT22;61865;50.232;18.614;2023-02-02T03:21:14;2.20;99.90
73586;DHT22;61865;50.232;18.614;2023-02-02T03:23:36;2.20;99.90
73586;DHT22;61865;50.232;18.614;2023-02-02T03:25:59;2.20;99.90
73586;DHT22;61865;50.232;18.614;2023-02-02T03:28:22;2.20;99.90
73586;DHT22;61865;50.232;18.614;2023-02-02T03:30:46;2.20;99.90
73586;DHT22;61865;50.232;18.614;2023-02-02T03:33:08;2.20;99.90
73586;DHT22;61865;50.232;18.614;2023-02-02T03:35:31;2.20;99.90
73586;DHT22;61865;50.232;18.614;2023-02-02T03:37:54;2.20;99.90
73586;DHT22;61865;50.232;18.614;2023-02-02T03:40:16;2.20;99.90
73586;DHT22;61865;50.232;18.614;2023-02-02T03:42:38;2.20;99.90
73586;DHT22;61865;50.232;18.614;2023-02-02T03:45:00;2.20;99.90
73586;DHT22;61865;50.232;18.614;2023-02-02T03:47:22;2.20;99.90
73586;DHT22;61865;50.232;18.614;2023-02-02T03:49:44;2.20;99.90
73586;DHT22;61865;50.232;18.614;2023-02-02T03:52:06;2.20;99.90
73586;DHT22;61865;50.232;18.614;2023-02-02T03:54:29;2.20;99.90
73586;DHT22;61865;50.232;18.614;2023-02-02T03:56:51;2.30;99.90
73586;DHT22;61865;50.232;18.614;2023-02-02T03:59:13;2.20;99.90
73586;DHT22;61865;50.232;18.614;2023-02-02T04:01:35;2.20;99.90
73586;DHT22;61865;50.232;18.614;2023-02-02T04:03:57;2.20;99.90
73586;DHT22;61865;50.232;18.614;2023-02-02T04:06:19;2.20;99.90
73586;DHT22;61865;50.232;18.614;2023-02-02T04:08:42;2.30;99.90
73586;DHT22;61865;50.232;18.614;2023-02-02T04:11:08;2.30;99.90
73586;DHT22;61865;50.232;18.614;2023-02-02T04:13:30;2.30;99.90
73586;DHT22;61865;50.232;18.614;2023-02-02T04:15:56;2.30;99.90
73586;DHT22;61865;50.232;18.614;2023-02-02T04:18:18;2.30;99.90
73586;DHT22;61865;50.232;18.614;2023-02-02T04:20:40;2.30;99.90
73586;DHT22;61865;50.232;18.614;2023-02-02T04:23:02;2.30;99.90
73586;DHT22;61865;50.232;18.614;2023-02-02T04:25:24;2.40;99.90
73586;DHT22;61865;50.232;18.614;2023-02-02T04:27:47;2.40;99.90
73586;DHT22;61865;50.232;18.614;2023-02-02T04:30:10;2.40;99.90
73586;DHT22;61865;50.232;18.614;2023-02-02T04:32:32;2.40;99.90
73586;DHT22;61865;50.232;18.614;2023-02-02T04:34:54;2.40;99.90
73586;DHT22;61865;50.232;18.614;2023-02-02T04:37:16;2.40;99.90
73586;DHT22;61865;50.232;18.614;2023-02-02T04:39:38;2.40;99.90
73586;DHT22;61865;50.232;18.614;2023-02-02T04:42:00;2.40;99.90
73586;DHT22;61865;50.232;18.614;2023-02-02T04:44:23;2.50;99.90
73586;DHT22;61865;50.232;18.614;2023-02-02T04:46:45;2.50;99.90
73586;DHT22;61865;50.232;18.614;2023-02-02T04:49:08;2.50;99.90
73586;DHT22;61865;50.232;18.614;2023-02-02T04:51:30;2.50;99.90
73586;DHT22;61865;50.232;18.614;2023-02-02T04:53:52;2.50;99.90
73586;DHT22;61865;50.232;18.614;2023-02-02T04:56:15;2.50;99.90
73586;DHT22;61865;50.232;18.614;2023-02-02T04:58:38;2.50;99.90
73586;DHT22;61865;50.232;18.614;2023-02-02T05:01:07;2.50;99.90
73586;DHT22;61865;50.232;18.614;2023-02-02T05:03:29;2.50;99.90
73586;DHT22;61865;50.232;18.614;2023-02-02T05:06:00;2.50;99.90
73586;DHT22;61865;50.232;18.614;2023-02-02T05:08:22;2.50;99.90
73586;DHT22;61865;50.232;18.614;2023-02-02T05:10:43;2.50;99.90
73586;DHT22;61865;50.232;18.614;2023-02-02T05:13:05;2.50;99.90
73586;DHT22;61865;50.232;18.614;2023-02-02T05:15:27;2.50;99.90
73586;DHT22;61865;50.232;18.614;2023-02-02T05:17:50;2.60;99.90
73586;DHT22;61865;50.232;18.614;2023-02-02T05:20:12;2.60;99.90
73586;DHT22;61865;50.232;18.614;2023-02-02T05:22:34;2.60;99.90
73586;DHT22;61865;50.232;18.614;2023-02-02T05:24:56;2.60;99.90
73586;DHT22;61865;50.232;18.614;2023-02-02T05:27:18;2.70;99.90
73586;DHT22;61865;50.232;18.614;2023-02-02T05:29:40;2.70;99.90
73586;DHT22;61865;50.232;18.614;2023-02-02T05:32:02;2.70;99.90
73586;DHT22;61865;50.232;18.614;2023-02-02T05:34:25;2.70;99.90
73586;DHT22;61865;50.232;18.614;2023-02-02T05:36:47;2.70;99.90
73586;DHT22;61865;50.232;18.614;2023-02-02T05:39:09;2.70;99.90
73586;DHT22;61865;50.232;18.614;2023-02-02T05:41:32;2.70;99.90
73586;DHT22;61865;50.232;18.614;2023-02-02T05:43:53;2.70;99.90
73586;DHT22;61865;50.232;18.614;2023-02-02T05:46:15;2.70;99.90
73586;DHT22;61865;50.232;18.614;2023-02-02T05:48:37;2.70;99.90
73586;DHT22;61865;50.232;18.614;2023-02-02T05:51:03;2.70;99.90
73586;DHT22;61865;50.232;18.614;2023-02-02T05:53:29;2.70;99.90
73586;DHT22;61865;50.232;18.614;2023-02-02T05:55:51;2.70;99.90
73586;DHT22;61865;50.232;18.614;2023-02-02T05:58:13;2.70;99.90
73586;DHT22;61865;50.232;18.614;2023-02-02T06:00:35;2.70;99.90
73586;DHT22;61865;50.232;18.614;2023-02-02T06:02:57;2.70;99.90
73586;DHT22;61865;50.232;18.614;2023-02-02T06:05:19;2.70;99.90
73586;DHT22;61865;50.232;18.614;2023-02-02T06:07:42;2.70;99.90
73586;DHT22;61865;50.232;18.614;2023-02-02T06:10:04;2.70;99.90
73586;DHT22;61865;50.232;18.614;2023-02-02T06:12:27;2.70;99.90
73586;DHT22;61865;50.232;18.614;2023-02-02T06:14:49;2.60;99.90
73586;DHT22;61865;50.232;18.614;2023-02-02T06:17:10;2.60;99.90
73586;DHT22;61865;50.232;18.614;2023-02-02T06:19:32;2.60;99.90
73586;DHT22;61865;50.232;18.614;2023-02-02T06:21:54;2.60;99.90
73586;DHT22;61865;50.232;18.614;2023-02-02T06:24:17;2.60;99.90
73586;DHT22;61865;50.232;18.614;2023-02-02T06:26:39;2.50;99.90
73586;DHT22;61865;50.232;18.614;2023-02-02T06:29:01;2.50;99.90
73586;DHT22;61865;50.232;18.614;2023-02-02T06:31:23;2.50;99.90
73586;DHT22;61865;50.232;18.614;2023-02-02T06:33:46;2.40;99.90
73586;DHT22;61865;50.232;18.614;2023-02-02T06:36:08;2.40;99.90
73586;DHT22;61865;50.232;18.614;2023-02-02T06:38:30;2.40;99.90
73586;DHT22;61865;50.232;18.614;2023-02-02T06:40:53;2.30;99.90
73586;DHT22;61865;50.232;18.614;2023-02-02T06:43:15;2.40;99.90
73586;DHT22;61865;50.232;18.614;2023-02-02T06:45:37;2.40;99.90
73586;DHT22;61865;50.232;18.614;2023-02-02T06:48:00;2.40;99.90
73586;DHT22;61865;50.232;18.614;2023-02-02T06:50:23;2.40;99.90
73586;DHT22;61865;50.232;18.614;2023-02-02T06:52:48;2.40;99.90
73586;DHT22;61865;50.232;18.614;2023-02-02T06:55:12;2.40;99.90
73586;DHT22;61865;50.232;18.614;2023-02-02T06:57:35;2.40;99.90
73586;DHT22;61865;50.232;18.614;2023-02-02T06:59:57;2.50;99.90
73586;DHT22;61865;50.232;18.614;2023-02-02T07:02:19;2.40;99.90
73586;DHT22;61865;50.232;18.614;2023-02-02T07:04:42;2.40;99.90
73586;DHT22;61865;50.232;18.614;2023-02-02T07:07:04;2.40;99.90
73586;DHT22;61865;50.232;18.614;2023-02-02T07:09:26;2.50;99.90
73586;DHT22;61865;50.232;18.614;2023-02-02T07:11:48;2.50;99.90
73586;DHT22;61865;50.232;18.614;2023-02-02T07:14:11;2.50;99.90
73586;DHT22;61865;50.232;18.614;2023-02-02T07:16:33;2.50;99.90
73586;DHT22;61865;50.232;18.614;2023-02-02T07:18:55;2.50;99.90
73586;DHT22;61865;50.232;18.614;2023-02-02T07:21:19;2.60;99.90
73586;DHT22;61865;50.232;18.614;2023-02-02T07:23:41;2.50;99.90
73586;DHT22;61865;50.232;18.614;2023-02-02T07:26:04;2.60;99.90
73586;DHT22;61865;50.232;18.614;2023-02-02T07:28:27;2.60;99.90
73586;DHT22;61865;50.232;18.614;2023-02-02T07:30:50;2.60;99.90
73586;DHT22;61865;50.232;18.614;2023-02-02T07:33:12;2.60;99.90
73586;DHT22;61865;50.232;18.614;2023-02-02T07:35:34;2.70;99.90
73586;DHT22;61865;50.232;18.614;2023-02-02T07:37:56;2.70;99.90
73586;DHT22;61865;50.232;18.614;2023-02-02T07:40:18;2.70;99.90
73586;DHT22;61865;50.232;18.614;2023-02-02T07:42:40;2.80;99.90
73586;DHT22;61865;50.232;18.614;2023-02-02T07:45:02;2.90;99.90
73586;DHT22;61865;50.232;18.614;2023-02-02T07:47:26;2.90;99.90
73586;DHT22;61865;50.232;18.614;2023-02-02T07:49:48;2.90;99.90
73586;DHT22;61865;50.232;18.614;2023-02-02T07:52:10;3.00;99.90
73586;DHT22;61865;50.232;18.614;2023-02-02T07:54:33;3.00;99.90
73586;DHT22;61865;50.232;18.614;2023-02-02T07:56:55;3.10;99.90
73586;DHT22;61865;50.232;18.614;2023-02-02T07:59:17;3.10;99.90
73586;DHT22;61865;50.232;18.614;2023-02-02T08:01:41;3.20;99.90
73586;DHT22;61865;50.232;18.614;2023-02-02T08:04:04;3.20;99.90
73586;DHT22;61865;50.232;18.614;2023-02-02T08:06:28;3.20;99.90
73586;DHT22;61865;50.232;18.614;2023-02-02T08:08:51;3.30;99.90
73586;DHT22;61865;50.232;18.614;2023-02-02T08:11:14;3.30;99.90
73586;DHT22;61865;50.232;18.614;2023-02-02T08:13:37;3.30;99.90
73586;DHT22;61865;50.232;18.614;2023-02-02T08:15:59;3.30;99.90
73586;DHT22;61865;50.232;18.614;2023-02-02T08:18:21;3.30;99.90
73586;DHT22;61865;50.232;18.614;2023-02-02T08:20:44;3.40;99.90
73586;DHT22;61865;50.232;18.614;2023-02-02T08:23:06;3.40;99.90
73586;DHT22;61865;50.232;18.614;2023-02-02T08:25:33;3.50;99.90
73586;DHT22;61865;50.232;18.614;2023-02-02T08:27:55;3.60;99.90
73586;DHT22;61865;50.232;18.614;2023-02-02T08:30:18;3.70;99.90
73586;DHT22;61865;50.232;18.614;2023-02-02T08:32:40;3.70;99.90
73586;DHT22;61865;50.232;18.614;2023-02-02T08:35:02;3.70;99.90
73586;DHT22;61865;50.232;18.614;2023-02-02T08:37:25;3.70;99.90
73586;DHT22;61865;50.232;18.614;2023-02-02T08:39:47;3.70;99.90
73586;DHT22;61865;50.232;18.614;2023-02-02T08:42:11;3.70;99.90
73586;DHT22;61865;50.232;18.614;2023-02-02T08:44:32;3.60;99.90
73586;DHT22;61865;50.232;18.614;2023-02-02T08:46:54;3.50;99.90
73586;DHT22;61865;50.232;18.614;2023-02-02T08:49:16;3.30;99.90
73586;DHT22;61865;50.232;18.614;2023-02-02T08:51:38;3.20;99.90
73586;DHT22;61865;50.232;18.614;2023-02-02T08:54:03;2.90;99.90
73586;DHT22;61865;50.232;18.614;2023-02-02T08:56:25;2.70;99.90
73586;DHT22;61865;50.232;18.614;2023-02-02T08:58:48;2.50;99.90
73586;DHT22;61865;50.232;18.614;2023-02-02T09:01:12;2.40;99.90
73586;DHT22;61865;50.232;18.614;2023-02-02T09:03:35;2.40;99.90
73586;DHT22;61865;50.232;18.614;2023-02-02T09:06:03;2.30;99.90
73586;DHT22;61865;50.232;18.614;2023-02-02T09:08:25;2.30;99.90
73586;DHT22;61865;50.232;18.614;2023-02-02T09:10:49;2.40;99.90
73586;DHT22;61865;50.232;18.614;2023-02-02T09:13:12;2.40;99.90
73586;DHT22;61865;50.232;18.614;2023-02-02T09:15:34;2.40;99.90
73586;DHT22;61865;50.232;18.614;2023-02-02T09:17:56;2.30;99.90
73586;DHT22;61865;50.232;18.614;2023-02-02T09:20:18;2.30;99.90
73586;DHT22;61865;50.232;18.614;2023-02-02T09:22:40;2.30;99.90
73586;DHT22;61865;50.232;18.614;2023-02-02T09:25:02;2.30;99.90
73586;DHT22;61865;50.232;18.614;2023-02-02T09:27:25;2.30;99.90
73586;DHT22;61865;50.232;18.614;2023-02-02T09:29:47;2.40;99.90
73586;DHT22;61865;50.232;18.614;2023-02-02T09:32:09;2.40;99.90
73586;DHT22;61865;50.232;18.614;2023-02-02T09:34:31;2.50;99.90
73586;DHT22;61865;50.232;18.614;2023-02-02T09:36:53;2.50;99.90
73586;DHT22;61865;50.232;18.614;2023-02-02T09:39:15;2.70;99.90
73586;DHT22;61865;50.232;18.614;2023-02-02T09:41:52;2.80;99.90
73586;DHT22;61865;50.232;18.614;2023-02-02T09:44:28;2.80;99.90
73586;DHT22;61865;50.232;18.614;2023-02-02T09:46:58;2.80;99.90
73586;DHT22;61865;50.232;18.614;2023-02-02T09:49:27;2.80;99.90
73586;DHT22;61865;50.232;18.614;2023-02-02T09:51:57;2.80;99.90
73586;DHT22;61865;50.232;18.614;2023-02-02T09:54:23;2.90;99.90
73586;DHT22;61865;50.232;18.614;2023-02-02T09:56:49;2.90;99.90
73586;DHT22;61865;50.232;18.614;2023-02-02T09:59:21;3.00;99.90
73586;DHT22;61865;50.232;18.614;2023-02-02T10:01:44;3.10;99.90
73586;DHT22;61865;50.232;18.614;2023-02-02T10:04:13;3.00;99.90
73586;DHT22;61865;50.232;18.614;2023-02-02T10:06:39;3.10;99.90
73586;DHT22;61865;50.232;18.614;2023-02-02T10:09:07;3.10;99.90
73586;DHT22;61865;50.232;18.614;2023-02-02T10:11:38;3.10;99.90
73586;DHT22;61865;50.232;18.614;2023-02-02T10:14:07;3.10;99.90
73586;DHT22;61865;50.232;18.614;2023-02-02T10:16:34;3.10;99.90
73586;DHT22;61865;50.232;18.614;2023-02-02T10:19:00;3.10;99.90
73586;DHT22;61865;50.232;18.614;2023-02-02T10:21:28;3.20;99.90
73586;DHT22;61865;50.232;18.614;2023-02-02T10:23:53;3.30;99.90
73586;DHT22;61865;50.232;18.614;2023-02-02T10:26:18;3.20;99.90
73586;DHT22;61865;50.232;18.614;2023-02-02T10:28:49;3.20;99.90
73586;DHT22;61865;50.232;18.614;2023-02-02T10:31:28;3.20;99.90
73586;DHT22;61865;50.232;18.614;2023-02-02T10:34:03;3.30;99.90
73586;DHT22;61865;50.232;18.614;2023-02-02T10:36:35;3.40;99.90
73586;DHT22;61865;50.232;18.614;2023-02-02T10:39:09;3.50;99.90
73586;DHT22;61865;50.232;18.614;2023-02-02T10:41:37;3.70;99.90
73586;DHT22;61865;50.232;18.614;2023-02-02T10:44:20;3.80;99.90
73586;DHT22;61865;50.232;18.614;2023-02-02T10:46:46;3.90;99.90
73586;DHT22;61865;50.232;18.614;2023-02-02T10:49:23;3.90;99.90
73586;DHT22;61865;50.232;18.614;2023-02-02T10:51:53;3.90;99.90
73586;DHT22;61865;50.232;18.614;2023-02-02T10:54:40;3.80;99.90
73586;DHT22;61865;50.232;18.614;2023-02-02T10:57:06;3.90;99.90
73586;DHT22;61865;50.232;18.614;2023-02-02T10:59:32;4.00;99.90
73586;DHT22;61865;50.232;18.614;2023-02-02T11:01:55;4.10;99.90
73586;DHT22;61865;50.232;18.614;2023-02-02T11:04:21;4.10;99.90
73586;DHT22;61865;50.232;18.614;2023-02-02T11:07:00;4.00;99.90
73586;DHT22;61865;50.232;18.614;2023-02-02T11:09:26;4.00;99.90
73586;DHT22;61865;50.232;18.614;2023-02-02T11:11:52;3.90;99.90
73586;DHT22;61865;50.232;18.614;2023-02-02T11:14:17;3.90;99.90
73586;DHT22;61865;50.232;18.614;2023-02-02T11:16:41;3.90;99.90
73586;DHT22;61865;50.232;18.614;2023-02-02T11:19:23;3.90;99.90
73586;DHT22;61865;50.232;18.614;2023-02-02T11:21:50;3.90;99.90
73586;DHT22;61865;50.232;18.614;2023-02-02T11:24:20;3.90;99.90
73586;DHT22;61865;50.232;18.614;2023-02-02T11:26:46;3.90;99.90
73586;DHT22;61865;50.232;18.614;2023-02-02T11:29:14;4.00;99.90
73586;DHT22;61865;50.232;18.614;2023-02-02T11:31:36;3.90;99.90
73586;DHT22;61865;50.232;18.614;2023-02-02T11:34:24;3.90;99.90
73586;DHT22;61865;50.232;18.614;2023-02-02T11:37:02;3.80;99.90
73586;DHT22;61865;50.232;18.614;2023-02-02T11:39:24;3.70;99.90
73586;DHT22;61865;50.232;18.614;2023-02-02T11:41:46;3.60;99.90
73586;DHT22;61865;50.232;18.614;2023-02-02T11:44:18;3.30;99.90
73586;DHT22;61865;50.232;18.614;2023-02-02T11:46:45;3.10;99.90
73586;DHT22;61865;50.232;18.614;2023-02-02T11:49:14;3.10;99.90
73586;DHT22;61865;50.232;18.614;2023-02-02T11:51:39;3.30;99.90
73586;DHT22;61865;50.232;18.614;2023-02-02T11:54:05;3.40;99.90
73586;DHT22;61865;50.232;18.614;2023-02-02T11:56:27;3.50;99.90
73586;DHT22;61865;50.232;18.614;2023-02-02T11:58:50;3.50;99.90
73586;DHT22;61865;50.232;18.614;2023-02-02T12:01:23;3.60;99.90
73586;DHT22;61865;50.232;18.614;2023-02-02T12:03:47;3.60;99.90
73586;DHT22;61865;50.232;18.614;2023-02-02T12:06:18;3.60;99.90
73586;DHT22;61865;50.232;18.614;2023-02-02T12:08:42;3.70;99.90
73586;DHT22;61865;50.232;18.614;2023-02-02T12:11:04;3.70;99.90
73586;DHT22;61865;50.232;18.614;2023-02-02T12:13:50;3.70;99.90
73586;DHT22;61865;50.232;18.614;2023-02-02T12:16:38;3.70;99.90
73586;DHT22;61865;50.232;18.614;2023-02-02T12:19:21;3.70;99.90
73586;DHT22;61865;50.232;18.614;2023-02-02T12:21:52;3.80;99.90
73586;DHT22;61865;50.232;18.614;2023-02-02T12:24:26;3.80;99.90
73586;DHT22;61865;50.232;18.614;2023-02-02T12:26:56;3.80;99.90
73586;DHT22;61865;50.232;18.614;2023-02-02T12:29:33;3.70;99.90
73586;DHT22;61865;50.232;18.614;2023-02-02T12:32:26;3.60;99.90
73586;DHT22;61865;50.232;18.614;2023-02-02T12:34:57;3.40;99.90
73586;DHT22;61865;50.232;18.614;2023-02-02T12:37:30;3.40;99.90
73586;DHT22;61865;50.232;18.614;2023-02-02T12:42:46;3.60;99.90
73586;DHT22;61865;50.232;18.614;2023-02-02T12:45:33;3.80;99.90
73586;DHT22;61865;50.232;18.614;2023-02-02T12:48:09;4.00;99.90
73586;DHT22;61865;50.232;18.614;2023-02-02T12:50:38;4.20;99.90
73586;DHT22;61865;50.232;18.614;2023-02-02T12:53:14;4.40;99.90
73586;DHT22;61865;50.232;18.614;2023-02-02T12:55:45;4.30;99.90
73586;DHT22;61865;50.232;18.614;2023-02-02T12:58:19;4.30;99.90
73586;DHT22;61865;50.232;18.614;2023-02-02T13:00:56;4.30;99.90
73586;DHT22;61865;50.232;18.614;2023-02-02T13:03:29;4.40;99.90
73586;DHT22;61865;50.232;18.614;2023-02-02T13:06:01;4.40;99.90
73586;DHT22;61865;50.232;18.614;2023-02-02T13:08:28;4.40;99.90
73586;DHT22;61865;50.232;18.614;2023-02-02T13:10:57;4.40;99.90
73586;DHT22;61865;50.232;18.614;2023-02-02T13:13:24;4.40;99.90
73586;DHT22;61865;50.232;18.614;2023-02-02T13:15:50;4.40;99.90
73586;DHT22;61865;50.232;18.614;2023-02-02T13:18:17;4.50;99.90
73586;DHT22;61865;50.232;18.614;2023-02-02T13:20:43;4.60;99.90
73586;DHT22;61865;50.232;18.614;2023-02-02T13:23:10;4.70;99.90
73586;DHT22;61865;50.232;18.614;2023-02-02T13:25:36;4.80;99.90
73586;DHT22;61865;50.232;18.614;2023-02-02T13:28:04;4.70;99.90
73586;DHT22;61865;50.232;18.614;2023-02-02T13:30:30;4.50;99.90
73586;DHT22;61865;50.232;18.614;2023-02-02T13:32:52;4.50;99.90
73586;DHT22;61865;50.232;18.614;2023-02-02T13:35:20;4.30;99.90
73586;DHT22;61865;50.232;18.614;2023-02-02T13:37:49;4.30;99.90
73586;DHT22;61865;50.232;18.614;2023-02-02T13:40:23;4.20;99.90
73586;DHT22;61865;50.232;18.614;2023-02-02T13:42:49;4.00;99.90
73586;DHT22;61865;50.232;18.614;2023-02-02T13:45:40;4.00;99.90
73586;DHT22;61865;50.232;18.614;2023-02-02T13:48:16;4.00;99.90
73586;DHT22;61865;50.232;18.614;2023-02-02T13:50:48;3.90;99.90
73586;DHT22;61865;50.232;18.614;2023-02-02T13:53:31;3.90;99.90
73586;DHT22;61865;50.232;18.614;2023-02-02T13:56:15;4.00;99.90
73586;DHT22;61865;50.232;18.614;2023-02-02T13:58:48;4.00;99.90
73586;DHT22;61865;50.232;18.614;2023-02-02T14:01:14;4.10;99.90
73586;DHT22;61865;50.232;18.614;2023-02-02T14:03:38;4.10;99.90
73586;DHT22;61865;50.232;18.614;2023-02-02T14:06:03;4.10;99.90
73586;DHT22;61865;50.232;18.614;2023-02-02T14:08:26;4.10;99.90
73586;DHT22;61865;50.232;18.614;2023-02-02T14:10:57;4.10;99.90
73586;DHT22;61865;50.232;18.614;2023-02-02T14:13:21;4.10;99.90
73586;DHT22;61865;50.232;18.614;2023-02-02T14:16:03;3.90;99.90
73586;DHT22;61865;50.232;18.614;2023-02-02T14:18:53;3.90;99.90
73586;DHT22;61865;50.232;18.614;2023-02-02T14:21:57;3.90;99.90
73586;DHT22;61865;50.232;18.614;2023-02-02T14:24:40;3.80;99.90
73586;DHT22;61865;50.232;18.614;2023-02-02T14:27:38;3.70;99.90
73586;DHT22;61865;50.232;18.614;2023-02-02T14:30:17;3.80;99.90
73586;DHT22;61865;50.232;18.614;2023-02-02T14:32:41;3.80;99.90
73586;DHT22;61865;50.232;18.614;2023-02-02T14:38:02;3.70;99.90
73586;DHT22;61865;50.232;18.614;2023-02-02T14:40:41;3.70;99.90
73586;DHT22;61865;50.232;18.614;2023-02-02T14:43:17;3.60;99.90
73586;DHT22;61865;50.232;18.614;2023-02-02T14:46:24;3.60;99.90
73586;DHT22;61865;50.232;18.614;2023-02-02T14:49:26;3.50;99.90
73586;DHT22;61865;50.232;18.614;2023-02-02T14:51:52;3.40;99.90
73586;DHT22;61865;50.232;18.614;2023-02-02T14:54:28;3.40;99.90
73586;DHT22;61865;50.232;18.614;2023-02-02T14:56:54;3.40;99.90
73586;DHT22;61865;50.232;18.614;2023-02-02T14:59:20;3.40;99.90
73586;DHT22;61865;50.232;18.614;2023-02-02T15:01:43;3.30;99.90
73586;DHT22;61865;50.232;18.614;2023-02-02T15:04:23;3.30;99.90
73586;DHT22;61865;50.232;18.614;2023-02-02T15:06:47;3.30;99.90
73586;DHT22;61865;50.232;18.614;2023-02-02T15:09:35;3.30;99.90
73586;DHT22;61865;50.232;18.614;2023-02-02T15:12:21;3.20;99.90
73586;DHT22;61865;50.232;18.614;2023-02-02T15:14:52;3.20;99.90
73586;DHT22;61865;50.232;18.614;2023-02-02T15:17:23;3.10;99.90
73586;DHT22;61865;50.232;18.614;2023-02-02T15:19:51;3.20;99.90
73586;DHT22;61865;50.232;18.614;2023-02-02T15:22:25;3.10;99.90
73586;DHT22;61865;50.232;18.614;2023-02-02T15:24:50;3.10;99.90
73586;DHT22;61865;50.232;18.614;2023-02-02T15:27:16;3.00;99.90
73586;DHT22;61865;50.232;18.614;2023-02-02T15:29:41;2.90;99.90
73586;DHT22;61865;50.232;18.614;2023-02-02T15:32:05;2.90;99.90
73586;DHT22;61865;50.232;18.614;2023-02-02T15:34:37;2.90;99.90
73586;DHT22;61865;50.232;18.614;2023-02-02T15:37:02;2.80;99.90